Time;durP1;ratioP1;P1;durP2;ratioP2;P2;SDS_P1;SDS_P2;PMS_P1;PMS_P2;Temp;Humidity;BMP_temperature;BMP_pressure;BME280_temperature;BME280_humidity;BME280_pressure;Samples;Min_cycle;Max_cycle;Signal;HPM_P1;HPM_P2
2021/08/03 00:00:58;;;;;;;21.42;11.85;;;;;;;21.41;100.00;100437.80;1810183;77;21184;-59
2021/08/03 00:03:39;;;;;;;22.30;12.58;;;;;;;21.37;100.00;100433.62;1805211;78;21123;-59
2021/08/03 00:06:13;;;;;;;20.70;12.45;;;;;;;21.35;100.00;100438.34;1806931;78;21416;-58
2021/08/03 00:08:47;;;;;;;19.73;11.95;;;;;;;21.35;100.00;100437.45;1802807;78;21046;-59
2021/08/03 00:11:15;;;;;;;21.87;12.43;;;;;;;21.33;100.00;100432.12;1809777;78;21493;-60
2021/08/03 00:13:42;;;;;;;20.27;12.98;;;;;;;21.35;100.00;100427.43;1814724;78;21001;-59
2021/08/03 00:16:13;;;;;;;21.90;13.93;;;;;;;21.36;100.00;100435.09;1809549;78;21060;-59
2021/08/03 00:18:41;;;;;;;30.48;13.58;;;;;;;21.39;100.00;100417.98;1803153;78;21766;-59
2021/08/03 00:21:08;;;;;;;53.50;14.95;;;;;;;21.43;100.00;100421.29;1805048;78;21030;-58
2021/08/03 00:23:41;;;;;;;25.88;13.22;;;;;;;21.44;100.00;100425.26;1813353;78;21111;-59
2021/08/03 00:26:14;;;;;;;40.13;13.20;;;;;;;21.52;100.00;100422.36;1789976;79;21679;-59
2021/08/03 00:28:46;;;;;;;41.10;12.75;;;;;;;21.57;100.00;100426.94;1811556;78;21062;-59
2021/08/03 00:31:12;;;;;;;53.55;13.35;;;;;;;21.61;100.00;100427.88;1810587;78;21812;-59
2021/08/03 00:33:39;;;;;;;58.25;14.15;;;;;;;21.64;100.00;100449.06;1787219;78;21377;-59
2021/08/03 00:36:06;;;;;;;31.90;12.82;;;;;;;21.65;100.00;100448.98;1813228;78;21025;-59
2021/08/03 00:38:33;;;;;;;23.27;13.08;;;;;;;21.67;100.00;100456.53;1780598;79;21059;-60
2021/08/03 00:41:02;;;;;;;28.20;12.50;;;;;;;21.68;100.00;100457.41;1802518;79;21324;-67
2021/08/03 00:43:31;;;;;;;29.45;11.93;;;;;;;21.68;100.00;100465.08;1813016;78;21064;-66
2021/08/03 00:45:58;;;;;;;27.42;13.00;;;;;;;21.68;100.00;100481.95;1817840;77;21119;-66
2021/08/03 00:48:26;;;;;;;27.85;12.20;;;;;;;21.68;100.00;100485.53;1809191;78;21064;-59
2021/08/03 00:50:54;;;;;;;23.30;12.23;;;;;;;21.70;100.00;100484.90;1803006;78;20992;-67
2021/08/03 00:53:21;;;;;;;33.67;12.13;;;;;;;21.70;100.00;100478.08;1806293;78;21038;-65
2021/08/03 00:55:48;;;;;;;36.83;13.20;;;;;;;21.71;100.00;100463.44;1804229;78;23141;-59
2021/08/03 00:58:16;;;;;;;33.53;12.70;;;;;;;21.72;100.00;100464.32;1814414;78;21310;-58
2021/08/03 01:00:44;;;;;;;24.10;12.45;;;;;;;21.71;100.00;100451.16;1810261;78;21383;-59
2021/08/03 01:03:12;;;;;;;19.82;13.28;;;;;;;21.71;100.00;100448.44;1807905;78;20985;-66
2021/08/03 01:05:57;;;;;;;26.12;12.05;;;;;;;21.70;100.00;100439.88;1767418;80;21453;-66
2021/08/03 01:08:45;;;;;;;28.20;13.18;;;;;;;21.70;100.00;100433.58;1736216;81;21410;-59
2021/08/03 01:11:35;;;;;;;21.87;15.18;;;;;;;21.72;100.00;100432.95;1750469;80;21557;-61
2021/08/03 01:14:20;;;;;;;20.37;13.18;;;;;;;21.73;100.00;100422.39;1749666;80;21598;-59
2021/08/03 01:17:00;;;;;;;18.48;11.75;;;;;;;21.71;100.00;100421.15;1759626;79;21546;-58
2021/08/03 01:19:52;;;;;;;18.98;11.57;;;;;;;21.71;100.00;100403.42;1723385;80;21532;-59
2021/08/03 01:23:11;;;;;;;15.53;11.20;;;;;;;21.74;100.00;100414.58;1808571;77;21465;-59
2021/08/03 01:26:13;;;;;;;15.95;10.98;;;;;;;21.75;100.00;100407.60;1808770;78;21013;-59
2021/08/03 01:28:54;;;;;;;14.63;10.18;;;;;;;21.76;100.00;100403.02;1807216;78;20992;-67
2021/08/03 01:31:25;;;;;;;18.07;11.33;;;;;;;21.73;100.00;100405.51;1816937;78;21032;-66
2021/08/03 01:34:04;;;;;;;20.02;11.45;;;;;;;21.74;100.00;100402.30;1754081;80;21081;-59
2021/08/03 01:36:34;;;;;;;20.97;10.90;;;;;;;21.74;100.00;100416.78;1737594;80;21143;-60
2021/08/03 01:39:04;;;;;;;14.05;10.60;;;;;;;21.75;100.00;100423.97;1778809;79;20951;-66
2021/08/03 01:41:32;;;;;;;15.85;11.18;;;;;;;21.79;100.00;100416.39;1770968;79;21111;-66
2021/08/03 01:44:01;;;;;;;17.20;11.35;;;;;;;21.83;100.00;100425.19;1786196;79;21093;-67
2021/08/03 01:46:28;;;;;;;16.87;11.10;;;;;;;21.87;100.00;100420.66;1758360;81;21015;-59
2021/08/03 01:48:59;;;;;;;14.23;10.75;;;;;;;21.95;100.00;100424.08;1738340;80;21136;-59
2021/08/03 01:51:29;;;;;;;17.70;11.00;;;;;;;22.00;100.00;100416.86;1723938;81;21544;-59
2021/08/03 01:53:57;;;;;;;14.38;10.63;;;;;;;22.06;100.00;100422.27;1732494;81;21092;-58
2021/08/03 01:56:24;;;;;;;14.63;9.88;;;;;;;22.09;100.00;100426.94;1745900;80;21053;-64
2021/08/03 01:58:54;;;;;;;20.27;10.50;;;;;;;22.12;100.00;100434.00;1761693;80;21066;-59
2021/08/03 02:01:27;;;;;;;16.30;10.53;;;;;;;22.16;100.00;100443.64;1805701;77;22121;-59
2021/08/03 02:03:55;;;;;;;19.05;10.43;;;;;;;22.18;99.66;100449.83;1757896;80;21097;-65
2021/08/03 02:06:24;;;;;;;13.95;9.93;;;;;;;22.15;98.57;100456.45;1745340;81;21008;-66
2021/08/03 02:08:56;;;;;;;14.05;10.03;;;;;;;22.13;98.31;100458.45;1764403;80;21541;-66
2021/08/03 02:11:33;;;;;;;20.85;10.32;;;;;;;22.13;97.75;100443.92;1806851;78;20974;-66
2021/08/03 02:14:02;;;;;;;17.57;10.93;;;;;;;22.13;97.65;100448.89;1797181;79;21854;-67
2021/08/03 02:16:36;;;;;;;36.85;11.43;;;;;;;22.14;97.69;100460.66;1800331;78;21679;-66
2021/08/03 02:19:04;;;;;;;28.07;11.38;;;;;;;22.11;97.60;100458.21;1802655;78;21378;-65
2021/08/03 02:21:33;;;;;;;35.43;12.05;;;;;;;22.11;97.88;100463.67;1806572;78;21021;-66
2021/08/03 02:24:01;;;;;;;50.45;12.60;;;;;;;22.06;98.03;100467.31;1778831;79;21500;-58
2021/08/03 02:26:28;;;;;;;38.55;12.20;;;;;;;22.01;98.39;100464.50;1815153;78;21117;-58
2021/08/03 02:28:56;;;;;;;47.30;11.50;;;;;;;21.99;98.16;100471.92;1804580;78;21900;-59
2021/08/03 02:31:30;;;;;;;21.82;10.98;;;;;;;21.99;98.24;100476.02;1805542;78;21049;-67
2021/08/03 02:34:05;;;;;;;23.47;11.60;;;;;;;21.98;98.44;100475.66;1812685;78;21336;-66
2021/08/03 02:36:41;;;;;;;25.35;11.05;;;;;;;21.99;98.67;100482.84;1786567;78;21101;-59
2021/08/03 02:39:08;;;;;;;29.82;11.83;;;;;;;21.97;99.21;100490.30;1737910;81;22205;-67
2021/08/03 02:41:36;;;;;;;23.75;11.85;;;;;;;21.95;99.49;100500.49;1749767;79;21072;-67
2021/08/03 02:44:04;;;;;;;21.95;11.70;;;;;;;21.91;99.70;100505.86;1807977;78;21052;-67
2021/08/03 02:46:31;;;;;;;21.45;11.70;;;;;;;21.90;100.00;100517.78;1779963;79;21530;-67
2021/08/03 02:49:04;;;;;;;21.90;12.73;;;;;;;21.87;100.00;100502.52;1783343;79;21040;-59
2021/08/03 02:51:31;;;;;;;21.57;13.38;;;;;;;21.85;100.00;100518.69;1781841;79;21147;-66
2021/08/03 02:54:01;;;;;;;20.02;12.43;;;;;;;21.80;100.00;100514.98;1805755;78;21023;-66
2021/08/03 02:56:29;;;;;;;21.45;12.63;;;;;;;21.75;100.00;100526.28;1802007;77;21302;-59
2021/08/03 02:59:00;;;;;;;19.60;13.75;;;;;;;21.72;100.00;100527.06;1787682;79;21058;-59
2021/08/03 03:01:29;;;;;;;27.73;12.85;;;;;;;21.70;100.00;100533.16;1808347;77;21050;-59
2021/08/03 03:04:02;;;;;;;34.63;13.22;;;;;;;21.67;100.00;100540.24;1817124;77;21337;-60
2021/08/03 03:06:32;;;;;;;23.20;13.13;;;;;;;21.65;100.00;100550.39;1796507;77;24614;-59
2021/08/03 03:09:03;;;;;;;20.57;12.05;;;;;;;21.63;100.00;100551.88;1826497;77;21103;-59
2021/08/03 03:11:34;;;;;;;21.93;12.13;;;;;;;21.65;100.00;100565.39;1819946;77;21048;-65
2021/08/03 03:14:06;;;;;;;30.60;12.50;;;;;;;21.69;100.00;100577.29;1781446;78;21477;-67
2021/08/03 03:16:40;;;;;;;21.68;11.68;;;;;;;21.79;100.00;100598.35;1820468;77;21000;-67
2021/08/03 03:19:08;;;;;;;29.48;12.28;;;;;;;21.84;100.00;100598.81;1815547;77;21046;-58
2021/08/03 03:21:35;;;;;;;18.07;12.28;;;;;;;21.91;100.00;100600.02;1821007;77;21036;-59
2021/08/03 03:24:02;;;;;;;23.95;11.57;;;;;;;21.98;100.00;100597.11;1811141;77;20994;-67
2021/08/03 03:26:32;;;;;;;31.02;12.63;;;;;;;22.09;100.00;100603.02;1786813;77;21493;-67
2021/08/03 03:29:00;;;;;;;26.25;12.63;;;;;;;22.22;100.00;100605.57;1764021;80;21783;-67
2021/08/03 03:31:32;;;;;;;23.83;11.93;;;;;;;22.33;100.00;100595.92;1820130;77;21117;-67
2021/08/03 03:34:05;;;;;;;25.88;12.60;;;;;;;22.48;100.00;100607.91;1814226;77;21044;-66
2021/08/03 03:36:35;;;;;;;42.40;14.70;;;;;;;22.61;98.70;100612.64;1787155;77;20924;-59
2021/08/03 03:39:04;;;;;;;24.18;13.30;;;;;;;22.68;97.79;100614.84;1819026;77;21067;-60
2021/08/03 03:41:33;;;;;;;21.82;12.35;;;;;;;22.75;96.86;100610.56;1822879;77;21037;-59
2021/08/03 03:44:01;;;;;;;26.62;12.35;;;;;;;22.77;96.47;100616.75;1813267;77;21431;-59
2021/08/03 03:46:37;;;;;;;19.37;12.63;;;;;;;22.80;96.41;100627.92;1815836;77;21046;-59
2021/08/03 03:49:11;;;;;;;29.12;14.07;;;;;;;22.84;96.33;100619.29;1815684;77;21109;-58
2021/08/03 03:51:41;;;;;;;;;;;;;;;22.85;96.15;100616.92;1767459;80;21104;-59
2021/08/03 03:54:16;;;;;;;29.95;13.95;;;;;;;22.82;95.97;100626.77;1758039;80;21111;-66
2021/08/03 03:56:50;;;;;;;27.87;13.30;;;;;;;22.75;96.27;100636.52;1758503;80;21066;-58
2021/08/03 03:59:20;;;;;;;24.23;12.70;;;;;;;22.68;96.70;100649.00;1766167;80;21078;-67
2021/08/03 04:01:50;;;;;;;25.57;13.35;;;;;;;22.61;96.80;100641.33;1771387;79;21365;-59
2021/08/03 04:04:18;;;;;;;23.15;13.50;;;;;;;22.54;97.42;100640.14;1767163;80;22150;-66
2021/08/03 04:06:45;;;;;;;18.80;13.50;;;;;;;22.50;98.13;100630.98;1779889;80;21936;-67
2021/08/03 04:09:23;;;;;;;22.22;13.62;;;;;;;22.47;98.78;100630.77;1760310;81;21072;-67
2021/08/03 04:11:53;;;;;;;24.23;14.03;;;;;;;22.49;99.31;100615.59;1739094;81;20908;-67
2021/08/03 04:14:27;;;;;;;20.00;13.45;;;;;;;22.52;99.66;100623.03;1769557;79;21044;-67
2021/08/03 04:16:56;;;;;;;21.27;13.65;;;;;;;22.56;99.55;100620.90;1771272;79;20947;-67
2021/08/03 04:19:25;;;;;;;29.18;14.78;;;;;;;22.59;99.63;100603.72;1729461;80;21626;-58
2021/08/03 04:21:52;;;;;;;18.45;13.28;;;;;;;22.58;99.61;100596.52;1743381;81;21022;-59
2021/08/03 04:24:19;;;;;;;26.80;14.80;;;;;;;22.55;99.89;100606.36;1748107;80;21050;-59
2021/08/03 04:26:46;;;;;;;22.80;13.25;;;;;;;22.51;100.00;100628.13;1753238;80;21062;-59
2021/08/03 04:29:15;;;;;;;23.73;13.43;;;;;;;22.46;100.00;100627.64;1747702;80;21700;-60
2021/08/03 04:31:42;;;;;;;22.95;13.78;;;;;;;22.47;100.00;100630.77;1746261;80;21128;-59
2021/08/03 04:34:09;;;;;;;22.70;13.70;;;;;;;22.46;100.00;100627.64;1752484;80;21065;-59
2021/08/03 04:36:37;;;;;;;25.35;13.53;;;;;;;22.46;100.00;100630.37;1755945;80;21107;-60
2021/08/03 04:39:10;;;;;;;25.32;14.13;;;;;;;22.46;100.00;100635.83;1749195;80;21358;-59
2021/08/03 04:41:34;;;;;;;30.05;13.15;;;;;;;22.46;99.90;100633.98;1749275;80;21088;-59
2021/08/03 04:44:01;;;;;;;28.73;13.65;;;;;;;22.45;99.83;100610.89;1751331;80;21471;-58
2021/08/03 04:46:28;;;;;;;33.98;15.08;;;;;;;22.43;99.90;100613.73;1756295;80;21100;-59
2021/08/03 04:48:56;;;;;;;35.45;15.63;;;;;;;22.42;99.83;100611.13;1744464;80;21005;-59
2021/08/03 04:51:23;;;;;;;31.42;14.73;;;;;;;22.44;99.98;100624.18;1757105;79;21122;-59
2021/08/03 04:53:50;;;;;;;24.47;13.53;;;;;;;22.51;99.63;100634.95;1751980;81;21102;-58
2021/08/03 04:56:18;;;;;;;22.50;14.30;;;;;;;22.53;99.00;100658.91;1751170;79;21069;-59
2021/08/03 04:58:45;;;;;;;26.30;14.58;;;;;;;22.56;98.85;100629.95;1752872;81;21033;-59
2021/08/03 05:01:11;;;;;;;27.77;15.08;;;;;;;22.58;97.99;100621.62;1752503;80;22075;-59
2021/08/03 05:03:39;;;;;;;30.60;15.13;;;;;;;22.57;97.97;100633.04;1739143;81;21072;-58
2021/08/03 05:06:05;;;;;;;33.75;14.95;;;;;;;22.55;98.02;100614.55;1739981;81;21081;-59
2021/08/03 05:08:34;;;;;;;31.70;14.73;;;;;;;22.58;97.97;100630.67;1750971;80;21030;-59
2021/08/03 05:11:02;;;;;;;26.75;15.85;;;;;;;22.64;97.85;100616.09;1745250;80;20892;-60
2021/08/03 05:13:32;;;;;;;27.65;15.55;;;;;;;22.70;97.23;100620.52;1791118;79;21082;-59
2021/08/03 05:16:00;;;;;;;25.90;14.60;;;;;;;22.74;97.20;100627.44;1781973;79;21077;-60
2021/08/03 05:18:27;;;;;;;22.32;14.33;;;;;;;22.85;96.56;100629.22;1789092;79;21080;-59
2021/08/03 05:20:55;;;;;;;22.48;13.85;;;;;;;22.95;95.83;100630.63;1781330;79;21097;-59
2021/08/03 05:23:23;;;;;;;24.07;14.93;;;;;;;23.06;94.98;100647.43;1751085;80;21088;-60
2021/08/03 05:25:50;;;;;;;23.52;13.72;;;;;;;23.15;94.69;100632.95;1778672;80;21494;-60
2021/08/03 05:28:17;;;;;;;24.12;14.70;;;;;;;23.25;93.41;100657.63;1790869;79;21006;-59
2021/08/03 05:30:50;;;;;;;17.27;13.05;;;;;;;23.32;93.25;100654.69;1780026;79;21031;-59
2021/08/03 05:33:17;;;;;;;24.02;13.50;;;;;;;23.43;92.67;100657.81;1779544;79;21147;-59
2021/08/03 05:35:44;;;;;;;23.67;14.60;;;;;;;23.53;91.69;100647.37;1787999;79;21498;-59
2021/08/03 05:38:11;;;;;;;23.50;14.33;;;;;;;23.60;91.11;100669.09;1786109;79;21430;-59
2021/08/03 05:41:03;;;;;;;22.15;14.40;;;;;;;23.73;91.04;100660.61;1782436;79;21082;-59
2021/08/03 05:43:30;;;;;;;27.13;13.98;;;;;;;23.91;90.21;100659.91;1782045;79;21131;-59
2021/08/03 05:45:58;;;;;;;35.98;15.03;;;;;;;24.17;88.18;100680.74;1779034;80;21353;-59
2021/08/03 05:48:25;;;;;;;40.43;14.25;;;;;;;24.30;86.59;100682.70;1783337;79;21052;-59
2021/08/03 05:50:52;;;;;;;43.70;14.50;;;;;;;24.30;86.06;100696.39;1781796;79;21095;-59
2021/08/03 05:53:19;;;;;;;41.08;14.38;;;;;;;24.31;86.03;100689.02;1779686;79;21566;-60
2021/08/03 05:58:21;;;;;;;26.35;14.55;;;;;;;24.25;85.69;100695.97;1782059;79;21574;-59
2021/08/03 06:00:47;;;;;;;21.33;13.68;;;;;;;24.27;85.59;100693.95;1746211;80;21100;-59
2021/08/03 06:03:14;;;;;;;19.23;14.28;;;;;;;24.28;85.54;100694.30;1776775;77;22202;-58
2021/08/03 06:05:41;;;;;;;25.80;14.10;;;;;;;24.25;85.25;100704.19;1823731;77;21017;-60
2021/08/03 06:08:11;;;;;;;25.12;14.28;;;;;;;24.23;85.05;100696.62;1817619;77;21706;-58
2021/08/03 06:10:43;;;;;;;22.90;14.55;;;;;;;24.24;84.59;100699.72;1793323;77;21749;-59
2021/08/03 06:13:14;;;;;;;30.60;14.60;;;;;;;24.26;84.59;100700.44;1791108;77;20999;-59
2021/08/03 06:15:42;;;;;;;28.38;13.98;;;;;;;24.31;84.48;100708.20;1821611;77;20966;-60
2021/08/03 06:18:15;;;;;;;40.70;14.90;;;;;;;24.38;83.38;100716.70;1822725;77;20956;-59
2021/08/03 06:20:45;;;;;;;27.15;13.30;;;;;;;24.37;83.16;100699.42;1827724;77;21002;-60
2021/08/03 06:23:14;;;;;;;23.42;13.83;;;;;;;24.38;83.13;100700.27;1796031;77;20999;-59
2021/08/03 06:25:42;;;;;;;32.48;13.50;;;;;;;24.41;83.02;100712.30;1768772;79;21079;-60
2021/08/03 06:28:11;;;;;;;30.45;14.38;;;;;;;24.42;82.63;100694.36;1739508;79;21095;-61
2021/08/03 06:30:40;;;;;;;30.45;14.25;;;;;;;24.42;81.62;100694.85;1761012;80;21032;-59
2021/08/03 06:33:12;;;;;;;22.00;13.88;;;;;;;24.44;81.90;100690.97;1758988;80;21045;-59
2021/08/03 06:35:39;;;;;;;20.82;13.13;;;;;;;24.49;80.81;100717.06;1762408;80;22536;-60
2021/08/03 06:38:06;;;;;;;26.93;12.43;;;;;;;24.50;79.92;100715.56;1760682;80;21045;-60
2021/08/03 06:40:33;;;;;;;19.50;12.47;;;;;;;24.49;79.36;100713.83;1761652;80;21101;-59
2021/08/03 06:43:09;;;;;;;19.52;12.03;;;;;;;24.44;79.24;100709.30;1759777;80;21049;-61
2021/08/03 06:45:37;;;;;;;31.55;12.05;;;;;;;24.43;79.18;100703.47;1756579;80;21127;-60
2021/08/03 06:48:09;;;;;;;21.60;12.43;;;;;;;24.50;79.27;100704.59;1756607;80;21941;-61
2021/08/03 06:50:42;;;;;;;21.10;10.85;;;;;;;24.59;78.89;100714.67;1782340;79;21245;-62
2021/08/03 06:53:10;;;;;;;27.45;12.35;;;;;;;24.70;78.04;100716.90;1787002;79;21024;-60
2021/08/03 06:55:41;;;;;;;50.95;14.07;;;;;;;24.79;77.78;100723.41;1784643;79;21116;-61
2021/08/03 06:58:12;;;;;;;17.27;11.93;;;;;;;24.82;77.42;100702.55;1786045;79;20988;-68
2021/08/03 07:00:40;;;;;;;21.23;12.28;;;;;;;24.83;76.97;100685.94;1782132;79;21147;-68
2021/08/03 07:03:08;;;;;;;19.23;11.18;;;;;;;24.95;77.18;100684.39;1760394;80;21151;-68
2021/08/03 07:05:38;;;;;;;24.65;11.57;;;;;;;25.02;76.39;100671.31;1812753;78;21080;-61
2021/08/03 07:08:05;;;;;;;18.90;11.38;;;;;;;25.07;76.65;100663.13;1811424;78;21056;-61
2021/08/03 07:10:33;;;;;;;20.48;11.05;;;;;;;25.14;76.29;100658.27;1807281;78;21096;-61
2021/08/03 07:13:02;;;;;;;17.50;10.78;;;;;;;25.20;75.88;100660.91;1811276;78;20984;-68
2021/08/03 07:15:31;;;;;;;16.80;10.85;;;;;;;25.23;75.57;100637.78;1812655;77;21012;-68
2021/08/03 07:17:58;;;;;;;18.77;11.80;;;;;;;25.29;75.72;100639.41;1816338;77;21247;-59
2021/08/03 07:20:25;;;;;;;12.30;9.63;;;;;;;25.45;75.65;100638.73;1812132;78;21056;-68
2021/08/03 07:22:53;;;;;;;14.68;10.65;;;;;;;25.74;74.36;100653.31;1810566;77;21031;-69
2021/08/03 07:25:21;;;;;;;19.15;9.73;;;;;;;26.02;73.90;100667.84;1730520;81;23371;-70
2021/08/03 07:27:49;;;;;;;20.88;10.13;;;;;;;26.28;72.27;100678.55;1771674;79;21779;-70
2021/08/03 07:30:16;;;;;;;16.20;10.03;;;;;;;26.50;70.38;100677.20;1769134;79;21038;-68
2021/08/03 07:32:44;;;;;;;18.07;9.48;;;;;;;26.76;70.69;100692.83;1759200;80;21124;-68
2021/08/03 07:35:11;;;;;;;17.15;10.95;;;;;;;27.04;69.37;100700.94;1759826;80;21076;-67
2021/08/03 07:37:38;;;;;;;17.12;10.80;;;;;;;27.28;67.50;100696.08;1757859;80;21143;-67
2021/08/03 07:40:07;;;;;;;14.93;10.90;;;;;;;27.45;67.02;100698.91;1756958;80;21624;-68
2021/08/03 07:42:35;;;;;;;14.58;9.65;;;;;;;27.53;66.97;100709.13;1757075;80;21403;-61
2021/08/03 07:45:04;;;;;;;17.15;8.88;;;;;;;27.57;63.63;100723.75;1754277;80;21020;-59
2021/08/03 07:47:33;;;;;;;13.60;8.35;;;;;;;27.56;63.47;100734.95;1758353;80;22229;-61
2021/08/03 07:50:00;;;;;;;21.75;9.30;;;;;;;27.64;62.51;100741.84;1764946;80;21130;-67
2021/08/03 07:52:28;;;;;;;15.98;10.05;;;;;;;27.78;62.66;100760.15;1756186;80;21855;-68
2021/08/03 07:54:55;;;;;;;20.97;11.55;;;;;;;27.96;63.61;100766.37;1761608;80;21046;-59
2021/08/03 07:57:23;;;;;;;23.60;10.98;;;;;;;28.13;63.62;100762.29;1762169;80;21044;-60
2021/08/03 07:59:52;;;;;;;24.85;10.53;;;;;;;28.29;63.24;100770.62;1756873;80;21616;-61
2021/08/03 08:02:21;;;;;;;24.57;11.88;;;;;;;28.45;62.43;100784.09;1759135;80;21957;-60
2021/08/03 08:04:48;;;;;;;20.50;10.78;;;;;;;28.49;61.90;100777.70;1756840;79;20980;-60
2021/08/03 08:07:15;;;;;;;17.15;10.88;;;;;;;28.43;61.98;100773.75;1759220;79;21132;-59
2021/08/03 08:09:42;;;;;;;18.62;11.33;;;;;;;28.36;61.80;100771.31;1752064;79;21235;-60
2021/08/03 08:12:11;;;;;;;16.07;11.80;;;;;;;28.18;62.34;100771.47;1765682;79;20910;-68
2021/08/03 08:14:38;;;;;;;26.65;11.53;;;;;;;27.93;63.35;100760.36;1805632;77;21552;-68
2021/08/03 08:17:07;;;;;;;16.17;11.50;;;;;;;27.69;64.13;100771.11;1740930;80;21460;-68
2021/08/03 08:19:35;;;;;;;18.65;13.08;;;;;;;27.44;65.01;100755.84;1741179;80;21115;-60
2021/08/03 08:22:03;;;;;;;15.68;11.50;;;;;;;27.21;65.84;100756.06;1741746;79;21116;-71
2021/08/03 08:24:30;;;;;;;17.57;11.57;;;;;;;26.99;67.04;100754.21;1739431;80;21660;-68
2021/08/03 08:26:57;;;;;;;19.25;10.78;;;;;;;26.86;67.54;100751.89;1746856;80;21149;-60
2021/08/03 08:29:24;;;;;;;16.67;11.38;;;;;;;26.76;67.80;100746.45;1743028;80;21986;-68
2021/08/03 08:31:51;;;;;;;20.05;11.38;;;;;;;26.71;68.22;100741.95;1746792;80;21022;-61
2021/08/03 08:34:19;;;;;;;17.90;12.25;;;;;;;26.71;67.98;100737.30;1749110;80;21069;-59
2021/08/03 08:36:46;;;;;;;24.12;11.22;;;;;;;26.68;67.83;100751.91;1741155;80;20998;-70
2021/08/03 08:39:13;;;;;;;26.60;11.38;;;;;;;26.58;67.73;100754.75;1771261;78;21052;-60
2021/08/03 08:41:41;;;;;;;29.15;10.90;;;;;;;26.43;68.39;100748.42;1765277;78;21072;-60
2021/08/03 08:44:10;;;;;;;21.93;10.40;;;;;;;26.33;68.56;100753.66;1766020;79;21011;-62
2021/08/03 08:46:40;;;;;;;23.57;11.12;;;;;;;26.30;68.94;100768.06;1763062;78;22104;-68
2021/08/03 08:49:07;;;;;;;21.50;10.43;;;;;;;26.20;68.63;100752.18;1762731;78;21059;-58
2021/08/03 08:51:36;;;;;;;35.55;11.53;;;;;;;26.05;69.40;100748.20;1766979;78;21631;-59
2021/08/03 08:54:03;;;;;;;16.75;9.75;;;;;;;25.96;69.84;100743.13;1762029;78;21445;-67
2021/08/03 08:56:30;;;;;;;15.88;10.40;;;;;;;25.90;69.22;100766.57;1734086;80;21727;-68
2021/08/03 08:58:57;;;;;;;22.77;10.43;;;;;;;25.82;69.38;100729.42;1800886;77;21083;-68
2021/08/03 09:01:24;;;;;;;24.75;10.40;;;;;;;25.73;69.97;100749.91;1795820;78;21055;-68
2021/08/03 09:03:52;;;;;;;26.80;10.63;;;;;;;25.71;70.33;100745.08;1800620;77;21573;-67
2021/08/03 09:06:21;;;;;;;28.12;10.60;;;;;;;25.71;70.40;100729.97;1800128;78;21099;-67
2021/08/03 09:08:49;;;;;;;25.82;10.35;;;;;;;25.78;70.39;100738.99;1805264;78;21056;-68
2021/08/03 09:11:19;;;;;;;38.23;11.57;;;;;;;25.83;70.36;100724.28;1801896;77;21028;-59
2021/08/03 09:14:00;;;;;;;26.68;10.53;;;;;;;25.91;69.35;100731.22;1770229;79;21158;-59
2021/08/03 09:16:47;;;;;;;30.32;10.80;;;;;;;25.95;68.73;100724.92;1806067;78;21357;-69
2021/08/03 09:19:37;;;;;;;13.50;9.85;;;;;;;25.94;69.34;100725.42;1802133;78;20984;-60
2021/08/03 09:22:28;;;;;;;31.90;10.35;;;;;;;26.03;68.42;100731.86;1802652;78;21031;-69
2021/08/03 09:25:12;;;;;;;26.05;9.95;;;;;;;26.25;68.72;100715.97;1803956;77;21465;-61
2021/08/03 09:27:43;;;;;;;21.80;9.93;;;;;;;26.55;67.10;100736.67;1766820;79;21056;-59
2021/08/03 09:30:21;;;;;;;24.70;10.82;;;;;;;26.65;66.18;100731.61;1799442;77;21692;-59
2021/08/03 09:32:49;;;;;;;26.33;11.08;;;;;;;26.69;66.28;100748.13;1803635;78;21595;-60
2021/08/03 09:35:18;;;;;;;14.13;10.03;;;;;;;26.71;66.21;100748.83;1801340;78;21013;-67
2021/08/03 09:37:46;;;;;;;14.93;10.15;;;;;;;26.76;66.61;100757.45;1801071;78;21106;-68
2021/08/03 09:40:23;;;;;;;18.55;9.73;;;;;;;26.88;66.28;100758.09;1798593;78;21150;-60
2021/08/03 09:43:06;;;;;;;17.10;10.05;;;;;;;27.01;65.83;100756.28;1801979;77;21887;-70
2021/08/03 09:45:38;;;;;;;22.52;10.80;;;;;;;27.09;64.68;100760.48;1803960;78;20917;-69
2021/08/03 09:48:21;;;;;;;22.17;10.72;;;;;;;27.15;65.15;100750.19;1785731;78;21413;-70
2021/08/03 09:51:06;;;;;;;12.65;9.25;;;;;;;27.35;65.22;100744.45;1804017;78;21064;-69
2021/08/03 09:53:40;;;;;;;15.13;9.93;;;;;;;27.51;62.85;100759.30;1741862;80;22585;-70
2021/08/03 09:56:09;;;;;;;;;;;;;;;27.52;63.50;100755.55;1804427;78;21590;-70
2021/08/03 09:59:03;;;;;;;19.57;10.25;;;;;;;27.69;63.63;100749.09;1796774;78;20174;-70
2021/08/03 10:01:40;;;;;;;21.05;9.95;;;;;;;27.92;62.22;100755.35;1804431;78;21476;-70
2021/08/03 10:04:09;;;;;;;14.53;9.70;;;;;;;28.03;61.80;100746.78;1808714;77;21037;-58
2021/08/03 10:06:39;;;;;;;18.75;9.35;;;;;;;27.98;61.18;100747.81;1815994;77;21073;-70
2021/08/03 10:09:11;;;;;;;16.05;9.15;;;;;;;27.86;61.23;100743.14;1815578;77;21201;-69
2021/08/03 10:11:38;;;;;;;18.52;8.55;;;;;;;27.79;60.04;100760.50;1817138;77;21273;-70
2021/08/03 10:14:05;;;;;;;16.77;9.10;;;;;;;27.69;60.65;100755.97;1815616;77;21329;-69
2021/08/03 10:16:32;;;;;;;16.82;7.97;;;;;;;27.68;60.83;100755.63;1819612;77;21084;-70
2021/08/03 10:19:01;;;;;;;12.13;8.50;;;;;;;27.64;59.71;100745.98;1815911;77;20866;-70
2021/08/03 10:21:42;;;;;;;8.20;6.92;;;;;;;27.62;59.61;100738.90;1769337;77;21122;-65
2021/08/03 10:24:21;;;;;;;22.82;8.53;;;;;;;27.57;58.85;100741.64;1816696;77;20903;-62
2021/08/03 10:27:08;;;;;;;15.80;8.18;;;;;;;27.59;59.49;100737.36;1790895;77;20929;-61
2021/08/03 10:29:47;;;;;;;18.82;8.20;;;;;;;27.64;59.02;100744.60;1822322;77;20950;-60
2021/08/03 10:32:39;;;;;;;28.83;7.92;;;;;;;27.64;59.19;100743.75;1812571;77;21422;-64
2021/08/03 10:35:17;;;;;;;30.55;8.83;;;;;;;27.65;58.90;100736.69;1821795;77;21108;-64
2021/08/03 10:38:04;;;;;;;11.53;7.05;;;;;;;27.81;58.47;100748.80;1746029;80;22247;-65
2021/08/03 10:40:55;;;;;;;11.90;7.20;;;;;;;28.00;57.88;100733.85;1815619;77;22202;-64
2021/08/03 10:43:48;;;;;;;14.83;7.28;;;;;;;28.03;57.33;100733.01;1823987;77;21113;-62
2021/08/03 10:46:17;;;;;;;12.58;7.10;;;;;;;28.04;57.17;100744.88;1810660;77;21115;-60
2021/08/03 10:48:46;;;;;;;14.55;7.90;;;;;;;28.09;57.44;100736.11;1809776;77;21707;-59
2021/08/03 10:51:23;;;;;;;14.90;7.72;;;;;;;28.17;58.11;100738.90;1818949;77;21029;-60
2021/08/03 10:54:07;;;;;;;15.63;8.10;;;;;;;28.30;58.14;100748.07;1817521;77;21066;-61
2021/08/03 10:56:58;;;;;;;14.33;7.53;;;;;;;28.47;58.40;100751.69;1820920;77;21352;-61
2021/08/03 10:59:40;;;;;;;15.30;7.30;;;;;;;28.69;57.77;100762.53;1820090;77;21035;-61
2021/08/03 11:02:40;;;;;;;12.65;6.90;;;;;;;28.84;56.57;100751.69;1816281;77;21594;-59
2021/08/03 11:05:08;;;;;;;13.32;6.25;;;;;;;28.97;55.99;100759.95;1811854;77;21025;-59
2021/08/03 11:13:03;;;;;;;12.63;6.28;;;;;;;29.08;54.00;100760.98;1812384;78;20970;-62
2021/08/03 11:15:37;;;;;;;10.48;6.75;;;;;;;29.22;54.41;100775.95;1806507;77;21142;-62
2021/08/03 11:18:10;;;;;;;9.40;6.87;;;;;;;29.27;54.90;100776.28;1808389;78;21084;-61
2021/08/03 11:20:47;;;;;;;9.23;6.93;;;;;;;29.18;55.62;100772.34;1770593;79;21001;-62
2021/08/03 11:23:16;;;;;;;11.12;6.80;;;;;;;29.10;56.26;100763.05;1752640;79;21041;-62
2021/08/03 11:25:46;;;;;;;7.05;6.35;;;;;;;29.09;56.18;100764.59;1772138;79;21069;-62
2021/08/03 11:28:22;;;;;;;8.78;6.22;;;;;;;29.13;56.44;100764.58;1771248;79;21134;-62
2021/08/03 11:30:51;;;;;;;9.40;5.90;;;;;;;29.15;56.95;100763.38;1756604;80;21459;-62
2021/08/03 11:33:20;;;;;;;8.88;5.35;;;;;;;29.18;55.74;100773.72;1771992;79;21073;-61
2021/08/03 11:35:47;;;;;;;7.72;5.30;;;;;;;29.11;52.71;100779.08;1741183;80;21015;-62